.
WxDataArchive / Data Records for 2008-08-18
2008-08-17 August 2008 2008-08-19

Data Records for Monday, 18 August 2008

Time	Temp	Chill	HIndex	Humid	Dewpt	 Wind 	HiWind	WindDir	Rain 	Barom 
-----	----	-----	------	-----	-----	------	------	-------	-----	----- 
00:00	66.0	66.0	66.0	74	57.5	0	0	---	0.00	29.932 
00:05	65.8	65.8	65.8	75	57.6	0	0	---	0.00	29.931 
00:10	65.8	65.8	65.8	75	57.6	0	0	---	0.00	29.930 
00:15	65.6	65.6	65.6	76	57.8	0	0	---	0.00	29.931 
00:20	65.5	65.5	65.5	76	57.7	0	0	---	0.00	29.932 
00:25	65.3	65.3	65.3	76	57.5	0	0	---	0.00	29.934 
00:30	65.2	65.2	65.2	77	57.8	0	0	---	0.00	29.935 
00:35	65.2	65.2	65.2	77	57.8	0	0	---	0.00	29.934 
00:40	65.0	65.0	65.0	77	57.6	0	0	---	0.00	29.934 
00:45	65.0	65.0	65.0	77	57.6	0	0	---	0.00	29.933 
00:50	65.0	65.0	65.0	77	57.6	0	0	---	0.00	29.932 
00:55	64.8	64.8	64.8	77	57.4	0	0	---	0.00	29.933 
01:00	64.7	64.7	64.7	77	57.3	0	0	---	0.00	29.933 
01:05	64.7	64.7	64.7	77	57.3	0	0	---	0.00	29.933 
01:10	64.5	64.5	64.5	78	57.5	0	0	---	0.00	29.933 
01:15	64.5	64.5	64.5	78	57.5	0	0	---	0.00	29.933 
01:20	64.3	64.3	64.3	79	57.6	0	0	---	0.00	29.933 
01:25	64.2	64.2	64.2	79	57.5	0	0	---	0.00	29.934 
01:30	64.2	64.2	64.2	79	57.5	0	0	---	0.00	29.934 
01:35	64.0	64.0	64.0	80	57.7	0	0	---	0.00	29.934 
01:40	63.9	63.9	63.9	80	57.6	0	0	---	0.00	29.934 
01:45	63.9	63.9	63.9	81	57.9	0	0	---	0.00	29.934 
01:50	63.9	63.9	63.9	81	57.9	0	0	---	0.00	29.933 
01:55	63.9	63.9	63.9	81	57.9	0	0	---	0.00	29.932 
02:00	63.9	63.9	63.9	81	57.9	0	0	---	0.00	29.932 
02:05	64.0	64.0	64.0	81	58.0	0	0	---	0.00	29.929 
02:10	64.2	64.2	64.2	81	58.2	0	0	---	0.00	29.929 
02:15	64.3	64.3	64.3	80	58.0	0	1	270	0.00	29.926 
02:20	64.5	64.5	64.5	80	58.2	0	1	270	0.00	29.922 
02:25	64.7	64.7	64.7	79	58.0	0	0	---	0.00	29.922 
02:30	64.8	64.8	64.8	78	57.8	0	0	---	0.00	29.920 
02:35	65.0	65.0	65.0	78	58.0	0	1	270	0.00	29.920 
02:40	65.0	65.0	65.0	77	57.6	0	0	---	0.00	29.921 
02:45	65.0	65.0	65.0	77	57.6	0	0	---	0.00	29.920 
02:50	64.8	64.8	64.8	77	57.4	0	0	---	0.00	29.918 
02:55	64.8	64.8	64.8	77	57.4	0	0	---	0.00	29.919 
03:00	64.7	64.7	64.7	77	57.3	0	0	---	0.00	29.919 
03:05	64.5	64.5	64.5	78	57.5	0	0	---	0.00	29.921 
03:10	64.3	64.3	64.3	78	57.3	0	1	270	0.00	29.920 
03:15	64.2	64.2	64.2	78	57.2	0	0	---	0.00	29.920 
03:20	64.2	64.2	64.2	78	57.2	0	0	---	0.00	29.919 
03:25	64.0	64.0	64.0	79	57.4	0	0	---	0.00	29.919 
03:30	64.0	64.0	64.0	79	57.4	0	0	---	0.00	29.918 
03:35	64.0	64.0	64.0	79	57.4	0	0	---	0.00	29.919 
03:40	64.0	64.0	64.0	79	57.4	0	0	---	0.00	29.918 
03:45	64.0	64.0	64.0	79	57.4	0	0	---	0.00	29.918 
03:50	64.2	64.2	64.2	79	57.5	0	0	---	0.00	29.918 
03:55	64.2	64.2	64.2	79	57.5	0	0	---	0.00	29.918 
04:00	64.3	64.3	64.3	79	57.6	0	0	---	0.00	29.918 
04:05	64.5	64.5	64.5	78	57.5	0	0	---	0.00	29.918 
04:10	64.5	64.5	64.5	78	57.5	0	1	270	0.00	29.918 
04:15	64.5	64.5	64.5	78	57.5	0	0	---	0.00	29.918 
04:20	64.7	64.7	64.7	78	57.7	0	0	---	0.00	29.918 
04:25	64.7	64.7	64.7	78	57.7	0	1	270	0.00	29.917 
04:30	64.7	64.7	64.7	77	57.3	0	1	270	0.00	29.918 
04:35	64.7	64.7	64.7	77	57.3	0	0	---	0.00	29.918 
04:40	64.7	64.7	64.7	77	57.3	0	1	270	0.00	29.917 
04:45	64.7	64.7	64.7	78	57.7	0	0	---	0.00	29.916 
04:50	64.5	64.5	64.5	78	57.5	0	0	---	0.00	29.916 
04:55	64.5	64.5	64.5	78	57.5	0	0	---	0.00	29.916 
05:00	64.3	64.3	64.3	78	57.3	0	0	---	0.00	29.917 
05:05	64.3	64.3	64.3	78	57.3	0	1	270	0.00	29.918 
05:10	64.2	64.2	64.2	79	57.5	0	1	270	0.00	29.919 
05:15	64.2	64.2	64.2	79	57.5	0	1	270	0.00	29.919 
05:20	64.2	64.2	64.2	79	57.5	0	1	270	0.00	29.920 
05:25	64.0	64.0	64.0	79	57.4	0	0	---	0.00	29.920 
05:30	64.0	64.0	64.0	80	57.7	0	0	---	0.00	29.921 
05:35	63.9	63.9	63.9	80	57.6	0	0	---	0.00	29.921 
05:40	63.7	63.7	63.7	81	57.8	0	0	---	0.00	29.921 
05:45	63.5	63.5	63.5	81	57.6	0	1	270	0.00	29.922 
05:50	63.4	63.4	63.4	81	57.5	0	1	270	0.00	29.923 
05:55	63.4	63.4	63.4	82	57.8	0	0	---	0.00	29.926 
06:00	63.4	63.4	63.4	82	57.8	0	0	---	0.00	29.925 
06:05	63.4	63.4	63.4	83	58.1	0	1	270	0.00	29.930 
06:10	63.4	63.4	63.4	83	58.1	0	1	270	0.00	29.933 
06:15	63.4	63.4	63.4	83	58.1	0	0	---	0.00	29.935 
06:20	63.5	63.5	63.5	83	58.2	0	0	---	0.00	29.934 
06:25	63.5	63.5	63.5	83	58.2	0	0	---	0.00	29.935 
06:30	63.7	63.7	63.7	83	58.4	0	1	270	0.00	29.935 
06:35	63.9	63.9	63.9	83	58.6	0	1	270	0.00	29.936 
06:40	64.2	64.2	64.2	82	58.6	0	1	270	0.00	29.935 
06:45	64.5	64.5	64.5	82	58.9	0	1	270	0.00	29.935 
06:50	64.8	64.8	64.8	81	58.8	0	2	270	0.00	29.934 
06:55	65.3	65.3	65.3	81	59.3	0	2	270	0.00	29.933 
07:00	65.6	65.6	65.6	80	59.3	0	2	270	0.00	29.934 
07:05	66.1	66.1	66.1	79	59.4	0	3	248	0.00	29.936 
07:10	66.4	66.4	66.4	78	59.3	0	1	248	0.00	29.936 
07:15	66.9	66.9	66.9	77	59.4	0	2	248	0.00	29.938 
07:20	67.3	67.3	67.3	77	59.8	0	2	248	0.00	29.937 
07:25	67.6	67.6	67.6	76	59.8	0	1	248	0.00	29.935 
07:30	68.1	68.1	68.1	75	59.9	0	2	248	0.00	29.936 
07:35	68.4	68.4	68.4	74	59.8	0	2	248	0.00	29.937 
07:40	68.8	68.8	68.8	73	59.8	1	2	248	0.00	29.937 
07:45	68.9	68.9	68.9	73	59.9	0	2	225	0.00	29.936 
07:50	69.1	69.1	69.1	73	60.1	0	1	225	0.00	29.937 
07:55	69.4	69.4	69.4	72	60.0	0	2	225	0.00	29.937 
08:00	69.6	69.6	69.6	73	60.6	0	2	225	0.00	29.936 
08:05	70.1	70.1	70.1	72	60.6	1	2	225	0.00	29.938 
08:10	70.3	70.3	70.3	71	60.4	1	2	225	0.00	29.938 
08:15	70.6	70.6	70.6	70	60.3	1	3	248	0.00	29.938 
08:20	71.1	71.1	71.1	70	60.8	0	2	248	0.00	29.939 
08:25	71.5	71.5	71.5	69	60.8	1	3	292	0.00	29.939 
08:30	71.8	71.8	71.8	68	60.7	1	3	292	0.00	29.938 
08:35	72.3	72.3	72.3	68	61.1	1	2	292	0.00	29.941 
08:40	72.7	72.7	72.7	68	61.5	1	3	292	0.00	29.942 
08:45	73.2	73.2	73.2	66	61.1	1	3	248	0.00	29.941 
08:50	73.3	73.3	73.3	66	61.2	1	3	248	0.00	29.942 
08:55	73.9	73.9	73.9	67	62.2	1	3	248	0.00	29.942 
09:00	74.4	74.4	74.4	66	62.3	1	2	248	0.00	29.941 
09:05	74.7	74.7	74.7	64	61.7	1	3	270	0.00	29.941 
09:10	74.9	74.9	74.9	65	62.3	1	2	248	0.00	29.939 
09:15	75.3	75.3	77.4	63	61.8	1	3	270	0.00	29.938 
09:20	75.4	75.4	77.4	64	62.4	1	4	270	0.00	29.938 
09:25	76.0	76.0	77.9	63	62.5	1	3	270	0.00	29.937 
09:30	76.3	76.3	78.2	62	62.3	1	4	270	0.00	29.936 
09:35	76.7	76.7	78.5	62	62.7	1	3	270	0.00	29.939 
09:40	77.0	77.0	78.8	61	62.5	1	3	248	0.00	29.940 
09:45	77.4	77.4	79.1	61	62.9	1	3	270	0.00	29.940 
09:50	77.7	77.7	79.4	61	63.2	1	3	270	0.00	29.940 
09:55	78.3	78.3	80.0	61	63.7	1	4	248	0.00	29.937 
10:00	78.8	78.8	80.4	59	63.2	1	3	248	0.00	29.935 
10:05	79.4	79.4	80.9	58	63.3	1	3	248	0.00	29.935 
10:10	79.6	79.6	81.2	58	63.5	1	3	248	0.00	29.934 
10:15	79.8	79.8	81.4	58	63.7	1	4	270	0.00	29.935 
10:20	80.3	80.3	81.8	57	63.7	1	3	270	0.00	29.935 
10:25	80.7	80.7	82.2	56	63.5	2	4	270	0.00	29.932 
10:30	80.7	80.7	82.0	55	63.0	2	4	248	0.00	29.933 
10:35	80.9	80.9	82.5	57	64.2	1	3	270	0.00	29.933 
10:40	80.7	80.7	82.3	57	64.0	1	3	315	0.00	29.935 
10:45	81.2	81.2	82.6	55	63.5	1	3	248	0.00	29.933 
10:50	81.6	81.6	83.4	57	64.9	1	3	248	0.00	29.932 
10:55	82.0	82.0	83.2	53	63.2	1	4	248	0.00	29.932 
11:00	82.2	82.2	83.3	52	62.8	1	4	248	0.00	29.932 
11:05	82.2	82.2	83.5	53	63.3	2	5	270	0.00	29.933 
11:10	82.2	82.2	83.5	53	63.3	2	4	270	0.00	29.933 
11:15	81.6	81.6	82.8	53	62.8	1	4	315	0.00	29.932 
11:20	80.5	80.5	81.8	55	62.8	1	3	292	0.00	29.934 
11:25	80.5	80.5	82.1	57	63.8	1	3	292	0.00	29.933 
11:30	81.6	81.6	83.1	55	63.8	1	3	292	0.00	29.932 
11:35	81.8	81.8	83.0	53	63.0	1	4	292	0.00	29.931 
11:40	81.2	81.2	82.5	54	62.9	1	3	292	0.00	29.933 
11:45	80.5	80.5	81.7	54	62.3	1	2	292	0.00	29.932 
11:50	80.5	80.5	81.8	55	62.8	1	2	292	0.00	29.931 
11:55	81.1	81.1	82.8	57	64.4	0	2	248	0.00	29.929 
12:00	82.0	82.0	83.4	54	63.7	1	4	270	0.00	29.926 
12:05	82.4	82.4	83.7	53	63.5	1	4	248	0.00	29.926 
12:10	83.2	83.2	84.7	53	64.3	1	3	248	0.00	29.923 
12:15	82.6	82.6	83.8	52	63.2	1	4	248	0.00	29.925 
12:20	81.8	81.8	83.0	53	63.0	1	3	270	0.00	29.928 
12:25	82.2	82.2	84.0	56	64.9	1	4	270	0.00	29.923 
12:30	83.2	83.2	84.5	52	63.7	2	4	270	0.00	29.920 
12:35	82.4	82.4	83.4	51	62.4	2	5	270	0.00	29.923 
12:40	81.4	81.4	82.7	54	63.1	2	4	248	0.00	29.927 
12:45	80.7	80.7	82.0	55	63.0	1	3	248	0.00	29.926 
12:50	80.3	80.3	81.8	57	63.7	1	3	270	0.00	29.926 
12:55	80.1	80.1	81.7	58	64.0	1	4	270	0.00	29.924 
13:00	79.8	79.8	81.3	57	63.2	1	3	270	0.00	29.925 
13:05	79.9	79.9	81.4	57	63.3	1	2	270	0.00	29.925 
13:10	80.3	80.3	81.7	56	63.1	1	4	292	0.00	29.923 
13:15	81.4	81.4	82.8	55	63.7	2	4	270	0.00	29.923 
13:20	82.6	82.6	84.3	55	64.8	1	4	270	0.00	29.918 
13:25	83.2	83.2	84.5	52	63.7	2	5	248	0.00	29.918 
13:30	82.6	82.6	83.6	51	62.6	1	3	270	0.00	29.917 
13:35	83.0	83.0	84.1	51	63.0	2	6	270	0.00	29.918 
13:40	83.4	83.4	84.2	49	62.2	1	5	270	0.00	29.919 
13:45	82.8	82.8	83.7	50	62.2	2	5	270	0.00	29.919 
13:50	81.6	81.6	82.8	53	62.8	2	4	270	0.00	29.920 
13:55	80.5	80.5	81.7	54	62.3	2	4	248	0.00	29.922 
14:00	80.3	80.3	81.5	54	62.1	2	5	270	0.00	29.922 
14:05	81.4	81.4	82.4	52	62.1	2	5	270	0.00	29.919 
14:10	82.4	82.4	83.4	51	62.4	2	4	248	0.00	29.918 
14:15	83.0	83.0	84.1	51	63.0	2	5	270	0.00	29.916 
14:20	83.4	83.4	84.4	50	62.8	2	5	248	0.00	29.915 
14:25	83.6	83.6	84.4	49	62.4	2	4	270	0.00	29.916 
14:30	83.8	83.8	84.7	49	62.6	3	6	248	0.00	29.915 
14:35	84.0	84.0	84.9	49	62.8	2	4	248	0.00	29.914 
14:40	84.0	84.0	84.5	47	61.6	2	5	270	0.00	29.912 
14:45	84.0	84.0	85.1	50	63.3	2	4	270	0.00	29.913 
14:50	84.3	84.3	85.5	50	63.6	2	4	270	0.00	29.911 
14:55	84.3	84.3	84.9	47	61.8	2	5	270	0.00	29.908 
15:00	84.3	84.3	84.7	46	61.2	2	7	270	0.00	29.903 
15:05	84.5	84.5	84.9	46	61.4	2	4	270	0.00	29.901 
15:10	84.7	84.7	85.2	46	61.6	1	3	270	0.00	29.899 
15:15	85.3	85.3	85.9	46	62.1	1	3	270	0.00	29.898 
15:20	85.5	85.5	85.7	44	61.1	2	6	270	0.00	29.897 
15:25	85.3	85.3	85.9	46	62.1	3	6	270	0.00	29.897 
15:30	84.9	84.9	85.4	46	61.8	2	5	292	0.00	29.895 
15:35	85.1	85.1	85.4	45	61.3	2	4	248	0.00	29.895 
15:40	84.9	84.9	85.2	45	61.2	2	5	270	0.00	29.895 
15:45	85.3	85.3	85.7	45	61.5	2	7	270	0.00	29.894 
15:50	85.3	85.3	85.5	44	60.9	2	5	270	0.00	29.891 
15:55	85.9	85.9	86.2	44	61.4	1	2	270	0.00	29.893 
16:00	85.5	85.5	85.5	43	60.4	2	5	270	0.00	29.892 
16:05	84.9	84.9	85.2	45	61.2	2	4	270	0.00	29.892 
16:10	84.7	84.7	85.0	45	61.0	2	5	270	0.00	29.891 
16:15	84.7	84.7	85.0	45	61.0	2	5	270	0.00	29.893 
16:20	84.5	84.5	84.7	45	60.8	2	4	270	0.00	29.895 
16:25	84.5	84.5	84.9	46	61.4	1	3	248	0.00	29.894 
16:30	84.3	84.3	84.5	45	60.6	2	5	270	0.00	29.898 
16:35	84.0	84.0	84.3	46	61.0	2	4	270	0.00	29.897 
16:40	83.8	83.8	84.1	46	60.8	1	4	270	0.00	29.896 
16:45	83.6	83.6	84.2	48	61.8	2	5	248	0.00	29.897 
16:50	83.4	83.4	83.8	47	61.0	2	5	270	0.00	29.898 
16:55	83.4	83.4	83.8	47	61.0	2	4	270	0.00	29.899 
17:00	83.4	83.4	83.8	47	61.0	2	4	270	0.00	29.899 
17:05	83.4	83.4	84.0	48	61.6	1	4	248	0.00	29.900 
17:10	83.0	83.0	83.5	48	61.3	1	4	248	0.00	29.899 
17:15	82.8	82.8	83.5	49	61.7	2	3	270	0.00	29.900 
17:20	82.8	82.8	83.3	48	61.1	2	4	270	0.00	29.900 
17:25	82.6	82.6	83.1	48	60.9	1	4	270	0.00	29.900 
17:30	82.4	82.4	83.0	49	61.3	1	4	270	0.00	29.901 
17:35	82.4	82.4	83.0	49	61.3	1	3	270	0.00	29.901 
17:40	82.2	82.2	82.8	49	61.1	2	5	248	0.00	29.902 
17:45	82.2	82.2	83.0	50	61.7	1	3	248	0.00	29.899 
17:50	81.8	81.8	82.6	50	61.3	2	4	270	0.00	29.899 
17:55	82.0	82.0	82.9	51	62.1	1	3	248	0.00	29.897 
18:00	81.8	81.8	82.6	50	61.3	2	5	248	0.00	29.896 
18:05	81.8	81.8	82.6	50	61.3	1	5	270	0.00	29.891 
18:10	81.6	81.6	82.3	50	61.1	2	4	270	0.00	29.892 
18:15	81.6	81.6	82.3	50	61.1	1	4	270	0.00	29.894 
18:20	81.4	81.4	82.1	50	60.9	2	4	270	0.00	29.894 
18:25	81.1	81.1	82.0	51	61.2	1	3	270	0.00	29.895 
18:30	80.9	80.9	81.9	52	61.6	2	3	270	0.00	29.896 
18:35	80.9	80.9	81.9	52	61.6	1	3	270	0.00	29.895 
18:40	80.7	80.7	81.7	52	61.4	1	4	270	0.00	29.898 
18:45	80.3	80.3	81.4	53	61.6	1	3	270	0.00	29.899 
18:50	80.1	80.1	81.2	53	61.4	1	3	248	0.00	29.900 
18:55	80.1	80.1	81.3	54	61.9	1	3	315	0.00	29.901 
19:00	79.9	79.9	81.1	54	61.7	1	3	270	0.00	29.903 
19:05	79.8	79.8	81.1	55	62.2	0	1	270	0.00	29.900 
19:10	79.4	79.4	80.7	55	61.8	0	2	270	0.00	29.900 
19:15	79.2	79.2	80.6	56	62.1	0	2	270	0.00	29.902 
19:20	79.0	79.0	80.4	56	61.9	1	2	270	0.00	29.902 
19:25	78.8	78.8	80.3	57	62.3	0	2	270	0.00	29.903 
19:30	78.5	78.5	80.0	58	62.5	0	1	270	0.00	29.904 
19:35	78.3	78.3	79.9	58	62.3	0	2	270	0.00	29.905 
19:40	78.1	78.1	79.7	58	62.1	0	1	270	0.00	29.907 
19:45	77.7	77.7	79.4	59	62.2	0	1	270	0.00	29.906 
19:50	77.6	77.6	79.3	60	62.6	0	1	270	0.00	29.907 
19:55	77.2	77.2	79.0	61	62.7	0	1	270	0.00	29.913 
20:00	77.0	77.0	78.8	61	62.5	0	1	270	0.00	29.915 
20:05	76.7	76.7	78.5	62	62.7	0	0	---	0.00	29.914 
20:10	76.5	76.5	78.4	62	62.5	0	0	---	0.00	29.914 
20:15	76.3	76.3	78.2	63	62.8	0	0	---	0.00	29.915 
20:20	76.0	76.0	77.9	63	62.5	0	0	---	0.00	29.915 
20:25	75.6	75.6	77.5	65	63.0	0	0	---	0.00	29.915 
20:30	75.3	75.3	77.3	65	62.7	0	0	---	0.00	29.917 
20:35	75.1	75.1	77.1	65	62.5	0	0	---	0.00	29.917 
20:40	74.7	74.7	74.7	66	62.6	0	0	---	0.00	29.917 
20:45	74.6	74.6	74.6	66	62.5	0	0	---	0.00	29.918 
20:50	74.4	74.4	74.4	67	62.7	0	0	---	0.00	29.920 
20:55	74.2	74.2	74.2	67	62.5	0	0	---	0.00	29.923 
21:00	74.0	74.0	74.0	68	62.8	0	0	---	0.00	29.923 
21:05	73.9	73.9	73.9	69	63.1	0	0	---	0.00	29.923 
21:10	73.7	73.7	73.7	69	62.9	0	0	---	0.00	29.925 
21:15	73.5	73.5	73.5	69	62.7	0	0	---	0.00	29.925 
21:20	73.3	73.3	73.3	70	62.9	0	0	---	0.00	29.927 
21:25	73.2	73.2	73.2	70	62.8	0	0	---	0.00	29.928 
21:30	73.2	73.2	73.2	71	63.2	0	0	---	0.00	29.930 
21:35	73.2	73.2	73.2	71	63.2	0	0	---	0.00	29.931 
21:40	73.2	73.2	73.2	71	63.2	0	0	---	0.00	29.932 
21:45	73.0	73.0	73.0	71	63.0	0	0	---	0.00	29.930 
21:50	73.0	73.0	73.0	71	63.0	0	0	---	0.00	29.930 
21:55	73.0	73.0	73.0	71	63.0	0	1	270	0.00	29.930 
22:00	73.0	73.0	73.0	71	63.0	0	1	270	0.00	29.929 
22:05	72.8	72.8	72.8	71	62.8	0	0	---	0.00	29.928 
22:10	72.7	72.7	72.7	71	62.7	0	0	---	0.00	29.929 
22:15	72.3	72.3	72.3	72	62.8	0	0	---	0.00	29.930 
22:20	72.1	72.1	72.1	73	63.0	0	1	270	0.00	29.932 
22:25	71.8	71.8	71.8	73	62.7	0	0	---	0.00	29.933 
22:30	71.6	71.6	71.6	73	62.5	0	0	---	0.00	29.934 
22:35	71.3	71.3	71.3	74	62.6	0	0	---	0.00	29.940 
22:40	70.9	70.9	70.9	75	62.6	0	0	---	0.00	29.942 
22:45	70.6	70.6	70.6	77	63.0	0	0	---	0.00	29.944 
22:50	70.3	70.3	70.3	77	62.7	0	0	---	0.00	29.944 
22:55	70.1	70.1	70.1	78	62.9	0	0	---	0.00	29.944 
23:00	69.8	69.8	69.8	78	62.6	0	0	---	0.00	29.944 
23:05	69.6	69.6	69.6	79	62.8	0	0	---	0.00	29.944 
23:10	69.3	69.3	69.3	79	62.5	0	0	---	0.00	29.946 
23:15	69.1	69.1	69.1	80	62.7	0	0	---	0.00	29.946 
23:20	68.9	68.9	68.9	81	62.8	0	0	---	0.00	29.947 
23:25	68.8	68.8	68.8	81	62.7	0	0	---	0.00	29.947 
23:30	68.6	68.6	68.6	82	62.9	0	0	---	0.00	29.947 
23:35	68.4	68.4	68.4	82	62.7	0	0	---	0.00	29.947 
23:40	68.3	68.3	68.3	83	62.9	0	0	---	0.00	29.947 
23:45	68.1	68.1	68.1	83	62.7	0	0	---	0.00	29.946 
23:50	67.9	67.9	67.9	83	62.5	0	0	---	0.00	29.947 
23:55	67.6	67.6	67.6	84	62.6	0	0	---	0.00	29.949 

CoCoRaHS
IN-AL-39
A2 Web Hosting
Creative Commons License
GoDaddy
Look for:

loaded 2017-10-20 19:43:31 • last modified 2010-11-18 10:43:29
Privacy PolicyDisclaimer
• wx.awcolley.com is powered by PmWiki v.2002016 •
• all content (unless otherwise noted) © 2017 A W Colley